createdAt,value
2023-06-20T00:00:45.590Z,73.83
2023-06-20T00:01:45.558Z,73.73
2023-06-20T00:02:45.546Z,73.93
2023-06-20T00:03:45.545Z,74.63
2023-06-20T00:04:45.498Z,74.54
2023-06-20T00:05:45.482Z,75.97
2023-06-20T00:06:45.464Z,76.57
2023-06-20T00:07:45.439Z,77.48
2023-06-20T00:08:45.437Z,77.58
2023-06-20T00:09:45.441Z,77.61
2023-06-20T00:10:45.421Z,77.61
2023-06-20T00:11:45.403Z,76.61
2023-06-20T00:12:45.380Z,76.91
2023-06-20T00:13:45.358Z,77.45
2023-06-20T00:14:45.369Z,78.22
2023-06-20T00:15:45.363Z,78.75
2023-06-20T00:16:45.348Z,78.75
2023-06-20T00:17:45.355Z,78.66
2023-06-20T00:18:45.300Z,79.46
2023-06-20T00:19:45.297Z,79.36
2023-06-20T00:20:45.294Z,78.85
2023-06-20T00:21:45.260Z,78.85
2023-06-20T00:22:45.240Z,79.25
2023-06-20T00:23:45.229Z,78.85
2023-06-20T00:24:45.297Z,79.75
2023-06-20T00:25:45.216Z,80.70
2023-06-20T00:26:45.186Z,81.80
2023-06-20T00:27:45.170Z,82.37
2023-06-20T00:28:45.196Z,82.97
2023-06-20T00:29:45.161Z,82.67
2023-06-20T00:30:45.157Z,83.17
2023-06-20T00:31:45.116Z,82.76
2023-06-20T00:32:45.162Z,82.37
2023-06-20T00:33:45.164Z,83.17
2023-06-20T00:34:45.082Z,82.46
2023-06-20T00:35:45.104Z,81.87
2023-06-20T00:36:45.058Z,82.46
2023-06-20T00:37:45.038Z,83.11
2023-06-20T00:38:45.060Z,83.71
2023-06-20T00:39:45.027Z,83.91
2023-06-20T00:40:45.008Z,84.41
2023-06-20T00:41:44.987Z,84.21
2023-06-20T00:42:44.979Z,84.41
2023-06-20T00:43:44.982Z,84.51
2023-06-20T00:44:44.954Z,85.02
2023-06-20T00:45:44.946Z,84.81
2023-06-20T00:46:44.921Z,84.71
2023-06-20T00:47:44.940Z,85.11
2023-06-20T00:48:44.920Z,85.82
2023-06-20T00:49:44.876Z,86.02
2023-06-20T00:50:44.872Z,86.12
2023-06-20T00:51:44.874Z,85.92
2023-06-20T00:52:44.859Z,86.02
2023-06-20T00:53:44.843Z,86.12
2023-06-20T00:54:44.822Z,86.42
2023-06-20T00:55:44.791Z,86.52
2023-06-20T00:56:44.791Z,86.52
2023-06-20T00:57:44.789Z,86.12
2023-06-20T00:58:44.763Z,86.52
2023-06-20T00:59:44.749Z,86.66
2023-06-20T01:00:44.726Z,86.62
2023-06-20T01:01:44.800Z,86.82
2023-06-20T01:02:44.911Z,87.12
2023-06-20T01:03:44.907Z,87.42
2023-06-20T01:04:44.683Z,87.22
2023-06-20T01:05:44.666Z,87.42
2023-06-20T01:06:44.677Z,87.62
2023-06-20T01:07:44.659Z,87.87
2023-06-20T01:08:44.631Z,88.43
2023-06-20T01:09:44.619Z,88.97
2023-06-20T01:10:44.604Z,88.83
2023-06-20T01:11:44.609Z,88.63
2023-06-20T01:12:44.580Z,88.73
2023-06-20T01:13:44.565Z,88.12
2023-06-20T01:14:44.530Z,88.12
2023-06-20T01:15:44.584Z,87.62
2023-06-20T01:16:44.538Z,87.46
2023-06-20T01:17:44.536Z,87.16
2023-06-20T01:18:44.487Z,87.06
2023-06-20T01:19:44.536Z,87.12
2023-06-20T01:20:44.472Z,87.57
2023-06-20T01:21:44.463Z,87.96
2023-06-20T01:22:44.428Z,88.17
2023-06-20T01:23:44.431Z,87.57
2023-06-20T01:24:44.555Z,87.77
2023-06-20T01:25:44.419Z,88.17
2023-06-20T01:26:44.398Z,88.47
2023-06-20T01:27:44.372Z,88.17
2023-06-20T01:28:44.355Z,88.17
2023-06-20T01:29:44.357Z,87.46
2023-06-20T01:30:44.349Z,87.77
2023-06-20T01:31:44.319Z,88.27
2023-06-20T01:32:44.333Z,88.77
2023-06-20T01:33:44.351Z,88.57
2023-06-20T01:34:44.270Z,87.87
2023-06-20T01:35:44.278Z,87.66
2023-06-20T01:36:44.285Z,87.30
2023-06-20T01:37:44.238Z,87.71
2023-06-20T01:38:44.226Z,88.01
2023-06-20T01:39:44.228Z,88.21
2023-06-20T01:40:44.250Z,88.51
2023-06-20T01:41:44.187Z,89.11
2023-06-20T01:42:44.169Z,89.42
2023-06-20T01:43:44.154Z,89.31
2023-06-20T01:44:44.174Z,89.22
2023-06-20T01:45:44.141Z,89.01
2023-06-20T01:46:44.180Z,88.81
2023-06-20T01:47:44.149Z,88.61
2023-06-20T01:48:44.448Z,88.41
2023-06-20T01:49:44.108Z,87.81
2023-06-20T01:50:44.058Z,87.81
2023-06-20T01:51:44.050Z,87.30
2023-06-20T01:52:44.034Z,86.70
2023-06-20T01:53:44.034Z,86.80
2023-06-20T01:54:44.019Z,87.01
2023-06-20T01:55:43.990Z,87.41
2023-06-20T01:56:43.959Z,87.51
2023-06-20T01:57:43.960Z,87.45
2023-06-20T01:58:43.957Z,87.45
2023-06-20T01:59:44.007Z,87.55
2023-06-20T02:00:43.925Z,88.15
2023-06-20T02:01:43.914Z,88.85
2023-06-20T02:02:43.916Z,89.46
2023-06-20T02:03:43.924Z,89.56
2023-06-20T02:04:43.853Z,89.36
2023-06-20T02:05:43.881Z,88.55
2023-06-20T02:06:43.835Z,88.61
2023-06-20T02:07:43.906Z,88.51
2023-06-20T02:08:43.824Z,88.41
2023-06-20T02:09:43.868Z,88.21
2023-06-20T02:10:43.786Z,87.91
2023-06-20T02:11:43.772Z,87.71
2023-06-20T02:12:43.806Z,87.51
2023-06-20T02:13:43.791Z,87.41
2023-06-20T02:14:43.741Z,87.71
2023-06-20T02:15:43.745Z,87.51
2023-06-20T02:16:43.747Z,87.51
2023-06-20T02:17:43.804Z,87.51
2023-06-20T02:18:43.679Z,87.71
2023-06-20T02:19:43.683Z,87.81
2023-06-20T02:20:43.648Z,87.71
2023-06-20T02:21:43.656Z,87.81
2023-06-20T02:22:43.656Z,88.11
2023-06-20T02:23:43.610Z,87.91
2023-06-20T02:24:43.604Z,87.77
2023-06-20T02:25:43.592Z,87.96
2023-06-20T02:26:43.578Z,88.07
2023-06-20T02:27:43.586Z,87.87
2023-06-20T02:28:43.567Z,87.46
2023-06-20T02:29:43.551Z,87.71
2023-06-20T02:30:43.514Z,88.11
2023-06-20T02:31:43.552Z,88.31
2023-06-20T02:32:43.491Z,88.31
2023-06-20T02:33:43.473Z,88.57
2023-06-20T02:34:43.463Z,88.47
2023-06-20T02:35:43.449Z,88.41
2023-06-20T02:36:43.446Z,88.51
2023-06-20T02:37:43.417Z,88.81
2023-06-20T02:38:43.405Z,88.81
2023-06-20T02:39:43.394Z,88.81
2023-06-20T02:40:43.385Z,89.11
2023-06-20T02:41:43.388Z,89.31
2023-06-20T02:42:45.982Z,89.51
2023-06-20T02:43:43.348Z,89.42
2023-06-20T02:44:43.325Z,89.31
2023-06-20T02:45:43.365Z,89.42
2023-06-20T02:46:43.370Z,89.22
2023-06-20T02:47:43.328Z,89.22
2023-06-20T02:48:43.273Z,89.51
2023-06-20T02:49:43.242Z,89.56
2023-06-20T02:50:43.262Z,89.46
2023-06-20T02:51:43.227Z,89.66
2023-06-20T02:52:43.206Z,89.66
2023-06-20T02:53:43.207Z,89.66
2023-06-20T02:54:43.222Z,89.56
2023-06-20T02:55:43.212Z,89.66
2023-06-20T02:56:43.153Z,89.56
2023-06-20T02:57:43.170Z,89.36
2023-06-20T02:58:43.136Z,89.22
2023-06-20T02:59:43.162Z,89.26
2023-06-20T03:00:43.128Z,89.11
2023-06-20T03:01:43.135Z,89.11
2023-06-20T03:02:43.196Z,89.51
2023-06-20T03:03:43.264Z,89.51
2023-06-20T03:04:43.075Z,89.62
2023-06-20T03:05:43.089Z,89.82
2023-06-20T03:06:43.029Z,90.02
2023-06-20T03:07:43.017Z,90.02
2023-06-20T03:08:42.994Z,89.82
2023-06-20T03:09:43.031Z,89.82
2023-06-20T03:10:42.998Z,89.51
2023-06-20T03:11:42.967Z,89.42
2023-06-20T03:12:42.988Z,89.42
2023-06-20T03:13:42.981Z,89.51
2023-06-20T03:14:42.949Z,89.42
2023-06-20T03:15:42.945Z,89.31
2023-06-20T03:16:42.938Z,89.42
2023-06-20T03:17:42.913Z,89.11
2023-06-20T03:18:42.909Z,89.01
2023-06-20T03:19:42.859Z,88.91
2023-06-20T03:20:42.833Z,88.71
2023-06-20T03:21:42.857Z,88.91
2023-06-20T03:22:42.843Z,89.01
2023-06-20T03:23:42.835Z,88.91
2023-06-20T03:24:43.004Z,89.11
2023-06-20T03:25:42.766Z,89.22
2023-06-20T03:26:42.754Z,89.51
2023-06-20T03:27:42.775Z,89.72
2023-06-20T03:28:42.748Z,89.82
2023-06-20T03:29:42.719Z,89.82
2023-06-20T03:30:42.708Z,89.51
2023-06-20T03:31:42.843Z,89.42
2023-06-20T03:32:42.729Z,89.31
2023-06-20T03:33:42.691Z,89.31
2023-06-20T03:34:42.647Z,89.62
2023-06-20T03:35:42.648Z,89.31
2023-06-20T03:36:42.628Z,89.42
2023-06-20T03:37:42.642Z,89.31
2023-06-20T03:38:42.612Z,89.31
2023-06-20T03:39:42.589Z,89.42
2023-06-20T03:40:42.585Z,89.62
2023-06-20T03:41:42.574Z,89.51
2023-06-20T03:42:42.568Z,89.51
2023-06-20T03:43:42.572Z,89.51
2023-06-20T03:44:42.532Z,89.42
2023-06-20T03:45:42.535Z,89.62
2023-06-20T03:46:42.523Z,89.42
2023-06-20T03:47:42.532Z,89.31
2023-06-20T03:48:42.472Z,89.62
2023-06-20T03:49:44.891Z,89.72
2023-06-20T03:50:42.447Z,89.62
2023-06-20T03:51:42.474Z,89.72
2023-06-20T03:52:42.428Z,89.72
2023-06-20T03:53:42.405Z,89.51
2023-06-20T03:54:42.392Z,89.62
2023-06-20T03:55:42.391Z,89.51
2023-06-20T03:56:42.386Z,89.62
2023-06-20T03:57:42.450Z,89.82
2023-06-20T03:58:42.351Z,89.82
2023-06-20T04:00:48.284Z,89.72
2023-06-20T04:01:48.259Z,89.42
2023-06-20T04:02:48.399Z,89.51
2023-06-20T04:03:48.263Z,89.62
2023-06-20T04:04:48.199Z,89.82
2023-06-20T04:05:48.355Z,89.62
2023-06-20T04:06:48.186Z,89.42
2023-06-20T04:07:48.167Z,89.62
2023-06-20T04:08:48.174Z,89.82
2023-06-20T04:09:48.139Z,90.12
2023-06-20T04:10:48.143Z,90.42
2023-06-20T04:11:48.125Z,90.62
2023-06-20T04:12:48.089Z,90.52
2023-06-20T04:13:48.080Z,90.62
2023-06-20T04:14:48.067Z,90.62
2023-06-20T04:15:48.105Z,90.42
2023-06-20T04:16:48.044Z,90.32
2023-06-20T04:17:48.099Z,90.22
2023-06-20T04:18:48.014Z,90.12
2023-06-20T04:19:48.037Z,90.22
2023-06-20T04:20:48.064Z,90.42
2023-06-20T04:21:47.999Z,90.52
2023-06-20T04:22:48.003Z,90.52
2023-06-20T04:23:47.953Z,90.72
2023-06-20T04:24:47.984Z,90.82
2023-06-20T04:25:47.951Z,90.92
2023-06-20T04:26:47.909Z,90.72
2023-06-20T04:27:47.896Z,90.62
2023-06-20T04:28:47.875Z,89.56
2023-06-20T04:29:47.883Z,89.76
2023-06-20T04:30:47.853Z,89.76
2023-06-20T04:31:47.858Z,89.96
2023-06-20T04:32:47.870Z,90.36
2023-06-20T04:33:47.806Z,90.06
2023-06-20T04:34:47.811Z,89.76
2023-06-20T04:35:47.785Z,89.56
2023-06-20T04:36:47.774Z,89.56
2023-06-20T04:37:47.751Z,89.56
2023-06-20T04:38:47.760Z,89.76
2023-06-20T04:39:47.804Z,89.86
2023-06-20T04:40:47.722Z,89.86
2023-06-20T04:41:47.709Z,89.82
2023-06-20T04:42:47.704Z,89.66
2023-06-20T04:43:47.694Z,89.51
2023-06-20T04:44:47.669Z,89.51
2023-06-20T04:45:47.654Z,89.31
2023-06-20T04:46:47.632Z,89.31
2023-06-20T04:47:47.907Z,89.51
2023-06-20T04:48:47.652Z,89.72
2023-06-20T04:49:47.604Z,89.62
2023-06-20T04:50:47.570Z,89.82
2023-06-20T04:51:47.574Z,89.92
2023-06-20T04:52:47.603Z,89.62
2023-06-20T04:53:48.725Z,89.31
2023-06-20T04:54:47.537Z,89.42
2023-06-20T04:55:47.539Z,89.42
2023-06-20T04:56:47.490Z,89.27
2023-06-20T04:57:47.508Z,89.37
2023-06-20T04:58:47.509Z,89.37
2023-06-20T04:59:47.488Z,88.97
2023-06-20T05:00:47.473Z,88.87
2023-06-20T05:01:47.456Z,88.87
2023-06-20T05:02:47.509Z,88.87
2023-06-20T05:03:49.548Z,88.77
2023-06-20T05:04:47.383Z,87.96
2023-06-20T05:05:47.507Z,87.57
2023-06-20T05:06:47.364Z,87.77
2023-06-20T05:07:47.368Z,88.07
2023-06-20T05:08:47.378Z,88.27
2023-06-20T05:09:47.380Z,88.41
2023-06-20T05:10:47.322Z,88.37
2023-06-20T05:11:47.320Z,88.37
2023-06-20T05:12:47.314Z,88.17
2023-06-20T05:13:47.290Z,88.17
2023-06-20T05:14:47.271Z,88.31
2023-06-20T05:15:47.308Z,88.51
2023-06-20T05:16:47.233Z,88.71
2023-06-20T05:17:47.284Z,88.91
2023-06-20T05:18:47.220Z,88.91
2023-06-20T05:19:47.215Z,89.01
2023-06-20T05:20:47.165Z,89.11
2023-06-20T05:21:47.186Z,89.11
2023-06-20T05:22:47.183Z,89.31
2023-06-20T05:23:47.230Z,88.91
2023-06-20T05:24:47.252Z,88.81
2023-06-20T05:25:47.121Z,89.01
2023-06-20T05:26:47.124Z,88.91
2023-06-20T05:27:47.093Z,88.81
2023-06-20T05:28:47.071Z,88.77
2023-06-20T05:29:47.055Z,88.67
2023-06-20T05:30:47.040Z,88.57
2023-06-20T05:31:47.119Z,88.67
2023-06-20T05:32:47.207Z,88.67
2023-06-20T05:33:47.010Z,88.87
2023-06-20T05:34:47.001Z,88.77
2023-06-20T05:35:46.970Z,88.67
2023-06-20T05:36:47.200Z,88.97
2023-06-20T05:37:46.950Z,88.97
2023-06-20T05:38:46.934Z,88.87
2023-06-20T05:39:46.954Z,88.87
2023-06-20T05:40:46.917Z,88.97
2023-06-20T05:41:46.908Z,89.27
2023-06-20T05:42:46.912Z,89.17
2023-06-20T05:43:46.881Z,89.58
2023-06-20T05:44:46.870Z,89.27
2023-06-20T05:45:46.848Z,89.37
2023-06-20T05:46:46.870Z,89.78
2023-06-20T05:47:46.874Z,90.17
2023-06-20T05:48:46.849Z,90.48
2023-06-20T05:49:46.797Z,90.48
2023-06-20T05:50:46.801Z,90.37
2023-06-20T05:51:46.788Z,90.68
2023-06-20T05:52:46.755Z,91.08
2023-06-20T05:53:46.754Z,90.88
2023-06-20T05:54:46.733Z,90.78
2023-06-20T05:55:46.714Z,90.68
2023-06-20T05:56:46.700Z,90.78
2023-06-20T05:57:46.686Z,91.08
2023-06-20T05:58:46.734Z,91.38
2023-06-20T05:59:46.673Z,91.18
2023-06-20T06:00:46.647Z,91.28
2023-06-20T06:01:46.628Z,91.18
2023-06-20T06:02:46.923Z,91.08
2023-06-20T06:03:46.753Z,91.48
2023-06-20T06:04:46.646Z,91.48
2023-06-20T06:05:46.575Z,91.28
2023-06-20T06:06:46.570Z,90.78
2023-06-20T06:07:46.562Z,91.08
2023-06-20T06:08:46.570Z,91.18
2023-06-20T06:09:48.147Z,91.28
2023-06-20T06:10:46.507Z,91.28
2023-06-20T06:11:46.508Z,90.88
2023-06-20T06:12:46.521Z,90.98
2023-06-20T06:13:46.473Z,91.68
2023-06-20T06:14:46.555Z,91.28
2023-06-20T06:15:59.332Z,91.38
2023-06-20T06:16:47.527Z,91.38
2023-06-20T06:17:46.479Z,91.34
2023-06-20T06:18:46.429Z,91.24
2023-06-20T06:19:46.389Z,91.03
2023-06-20T06:20:46.403Z,91.14
2023-06-20T06:21:46.401Z,91.44
2023-06-20T06:22:46.347Z,91.44
2023-06-20T06:23:46.318Z,91.03
2023-06-20T06:24:46.475Z,90.94
2023-06-20T06:25:46.302Z,91.03
2023-06-20T06:26:46.302Z,91.03
2023-06-20T06:27:46.297Z,91.34
2023-06-20T06:28:46.270Z,90.94
2023-06-20T06:29:46.349Z,90.84
2023-06-20T06:30:46.303Z,91.14
2023-06-20T06:31:46.255Z,91.14
2023-06-20T06:32:46.260Z,91.34
2023-06-20T06:33:46.205Z,91.50
2023-06-20T06:34:46.195Z,91.09
2023-06-20T06:35:46.206Z,90.29
2023-06-20T06:36:46.160Z,90.29
2023-06-20T06:37:46.148Z,90.99
2023-06-20T06:38:46.147Z,90.79
2023-06-20T06:39:46.119Z,90.69
2023-06-20T06:40:46.151Z,91.15
2023-06-20T06:41:46.092Z,90.45
2023-06-20T06:42:46.091Z,89.54
2023-06-20T06:43:46.070Z,89.04
2023-06-20T06:44:46.095Z,89.14
2023-06-20T06:45:46.062Z,89.65
2023-06-20T06:46:46.102Z,89.95
2023-06-20T06:47:46.086Z,90.00
2023-06-20T06:48:46.026Z,89.61
2023-06-20T06:49:46.018Z,89.40
2023-06-20T06:50:45.982Z,89.30
2023-06-20T06:51:46.617Z,89.00
2023-06-20T06:52:45.960Z,88.96
2023-06-20T06:53:45.964Z,88.66
2023-06-20T06:54:45.966Z,88.56
2023-06-20T06:55:45.914Z,88.56
2023-06-20T06:56:45.902Z,88.66
2023-06-20T06:57:45.890Z,88.26
2023-06-20T06:58:45.885Z,88.26
2023-06-20T06:59:45.886Z,88.56
2023-06-20T07:00:45.915Z,88.42
2023-06-20T07:01:45.969Z,88.21
2023-06-20T07:02:45.896Z,88.32
2023-06-20T07:03:45.923Z,88.42
2023-06-20T07:04:45.837Z,88.32
2023-06-20T07:05:45.773Z,88.21
2023-06-20T07:06:45.787Z,87.92
2023-06-20T07:07:48.756Z,87.92
2023-06-20T07:08:45.758Z,87.52
2023-06-20T07:09:45.731Z,87.21
2023-06-20T07:10:45.711Z,86.91
2023-06-20T07:11:45.687Z,87.12
2023-06-20T07:12:45.676Z,87.41
2023-06-20T07:13:45.708Z,87.98
2023-06-20T07:14:45.662Z,87.87
2023-06-20T07:15:45.639Z,87.07
2023-06-20T07:16:59.852Z,86.77
2023-06-20T07:17:46.692Z,86.47
2023-06-20T07:18:45.627Z,86.47
2023-06-20T07:19:45.599Z,86.77
2023-06-20T07:20:45.580Z,86.68
2023-06-20T07:21:45.560Z,86.77
2023-06-20T07:22:45.582Z,86.77
2023-06-20T07:23:45.553Z,86.87
2023-06-20T07:24:47.761Z,86.98
2023-06-20T07:25:45.510Z,87.37
2023-06-20T07:26:45.514Z,87.27
2023-06-20T07:27:45.574Z,86.98
2023-06-20T07:28:45.486Z,86.53
2023-06-20T07:29:45.479Z,86.33
2023-06-20T07:30:45.456Z,86.13
2023-06-20T07:31:45.497Z,86.33
2023-06-20T07:32:45.494Z,86.63
2023-06-20T07:33:45.405Z,86.89
2023-06-20T07:34:45.393Z,86.89
2023-06-20T07:35:45.396Z,86.99
2023-06-20T07:36:45.386Z,86.79
2023-06-20T07:37:45.353Z,87.29
2023-06-20T07:38:45.351Z,87.09
2023-06-20T07:39:45.356Z,86.65
2023-06-20T07:40:45.454Z,85.75
2023-06-20T07:41:45.354Z,85.15
2023-06-20T07:42:45.293Z,85.05
2023-06-20T07:43:45.280Z,85.05
2023-06-20T07:44:45.270Z,85.35
2023-06-20T07:45:45.321Z,85.45
2023-06-20T07:46:45.251Z,85.75
2023-06-20T07:47:45.265Z,85.65
2023-06-20T07:48:45.236Z,84.95
2023-06-20T07:49:45.211Z,84.85
2023-06-20T07:50:45.212Z,84.75
2023-06-20T07:51:45.192Z,84.85
2023-06-20T07:52:45.167Z,84.85
2023-06-20T07:53:45.160Z,84.55
2023-06-20T07:54:45.144Z,84.45
2023-06-20T07:55:45.163Z,84.55
2023-06-20T07:56:45.120Z,84.75
2023-06-20T07:57:45.096Z,84.75
2023-06-20T07:58:45.118Z,84.51
2023-06-20T07:59:45.076Z,85.11
2023-06-20T08:00:45.080Z,85.21
2023-06-20T08:01:45.250Z,84.81
2023-06-20T08:02:45.134Z,84.51
2023-06-20T08:03:45.241Z,84.61
2023-06-20T08:04:45.029Z,84.01
2023-06-20T08:05:45.024Z,83.91
2023-06-20T08:06:44.998Z,83.81
2023-06-20T08:07:46.843Z,83.57
2023-06-20T08:08:44.967Z,83.27
2023-06-20T08:09:44.968Z,83.47
2023-06-20T08:10:44.934Z,83.97
2023-06-20T08:11:44.929Z,83.97
2023-06-20T08:12:44.917Z,83.37
2023-06-20T08:13:44.893Z,83.27
2023-06-20T08:14:44.898Z,83.17
2023-06-20T08:15:44.906Z,82.77
2023-06-20T08:16:44.864Z,81.67
2023-06-20T08:17:44.915Z,81.87
2023-06-20T08:18:44.829Z,82.47
2023-06-20T08:19:44.836Z,82.47
2023-06-20T08:20:44.806Z,82.97
2023-06-20T08:21:44.793Z,83.27
2023-06-20T08:22:44.823Z,82.64
2023-06-20T08:23:44.775Z,81.73
2023-06-20T08:24:44.909Z,80.94
2023-06-20T08:25:44.761Z,80.94
2023-06-20T08:26:44.825Z,81.63
2023-06-20T08:27:44.731Z,81.63
2023-06-20T08:28:44.713Z,81.73
2023-06-20T08:29:44.666Z,81.43
2023-06-20T08:30:44.671Z,81.20
2023-06-20T08:31:44.744Z,81.49
2023-06-20T08:32:44.674Z,81.30
2023-06-20T08:33:44.636Z,80.40
2023-06-20T08:34:44.631Z,80.10
2023-06-20T08:35:44.603Z,79.40
2023-06-20T08:36:44.661Z,79.30
2023-06-20T08:37:44.616Z,79.50
2023-06-20T08:38:44.585Z,80.10
2023-06-20T08:39:44.553Z,80.30
2023-06-20T08:40:44.543Z,80.80
2023-06-20T08:41:44.526Z,80.10
2023-06-20T08:42:44.563Z,79.00
2023-06-20T08:43:44.505Z,79.00
2023-06-20T08:44:56.869Z,79.06
2023-06-20T08:45:45.484Z,78.86
2023-06-20T08:46:44.511Z,78.86
2023-06-20T08:47:44.484Z,79.16
2023-06-20T08:48:44.448Z,79.46
2023-06-20T08:49:44.443Z,79.96
2023-06-20T08:50:44.433Z,80.66
2023-06-20T08:51:44.399Z,81.52
2023-06-20T08:52:44.410Z,81.02
2023-06-20T08:53:44.374Z,79.63
2023-06-20T08:54:44.367Z,79.43
2023-06-20T08:55:44.345Z,78.92
2023-06-20T08:56:44.357Z,78.73
2023-06-20T08:57:44.349Z,79.72
2023-06-20T08:58:44.333Z,79.28
2023-06-20T08:59:44.293Z,79.49
2023-06-20T09:00:44.340Z,79.88
2023-06-20T09:01:44.340Z,79.52
2023-06-20T09:02:44.324Z,78.53
2023-06-20T09:03:44.306Z,78.13
2023-06-20T09:04:44.239Z,77.63
2023-06-20T09:05:44.232Z,76.93
2023-06-20T09:06:44.254Z,77.73
2023-06-20T09:07:44.204Z,76.64
2023-06-20T09:08:44.185Z,76.64
2023-06-20T09:09:44.165Z,76.50
2023-06-20T09:10:44.191Z,76.40
2023-06-20T09:11:44.154Z,76.40
2023-06-20T09:12:44.135Z,76.20
2023-06-20T09:13:44.116Z,75.90
2023-06-20T09:14:44.185Z,76.50
2023-06-20T09:15:44.115Z,77.29
2023-06-20T09:16:44.196Z,77.29
2023-06-20T09:17:44.091Z,77.29
2023-06-20T09:18:44.058Z,77.89
2023-06-20T09:19:44.058Z,77.95
2023-06-20T09:20:44.055Z,77.46
2023-06-20T09:21:44.016Z,76.76
2023-06-20T09:22:44.018Z,76.66
2023-06-20T09:23:43.984Z,75.87
2023-06-20T09:24:44.180Z,76.26
2023-06-20T09:25:43.971Z,77.06
2023-06-20T09:26:43.958Z,76.66
2023-06-20T09:27:43.939Z,76.96
2023-06-20T09:28:43.928Z,76.86
2023-06-20T09:29:43.971Z,77.06
2023-06-20T09:30:43.937Z,75.67
2023-06-20T09:31:43.896Z,76.13
2023-06-20T09:32:43.927Z,76.53
2023-06-20T09:33:43.862Z,76.53
2023-06-20T09:34:43.863Z,76.43
2023-06-20T09:35:43.844Z,75.23
2023-06-20T09:36:43.806Z,74.84
2023-06-20T09:37:43.808Z,73.44
2023-06-20T09:38:43.802Z,73.94
2023-06-20T09:39:43.805Z,73.94
2023-06-20T09:40:43.776Z,74.13
2023-06-20T09:41:43.751Z,73.94
2023-06-20T09:42:43.745Z,73.74
2023-06-20T09:43:44.069Z,72.74
2023-06-20T09:44:43.721Z,72.74
2023-06-20T09:45:43.726Z,73.21
2023-06-20T09:46:43.701Z,75.10
2023-06-20T09:47:43.764Z,75.20
2023-06-20T09:48:43.669Z,75.20
2023-06-20T09:49:43.645Z,74.80
2023-06-20T09:50:43.638Z,74.30
2023-06-20T09:51:43.619Z,74.90
2023-06-20T09:52:43.586Z,74.10
2023-06-20T09:53:43.599Z,73.00
2023-06-20T09:54:43.565Z,73.00
2023-06-20T09:55:43.568Z,73.41
2023-06-20T09:56:43.535Z,73.41
2023-06-20T09:57:43.526Z,74.40
2023-06-20T09:58:43.532Z,75.40
2023-06-20T09:59:43.536Z,73.30
2023-06-20T10:00:50.642Z,74.60
2023-06-20T10:01:43.486Z,74.56
2023-06-20T10:02:43.549Z,74.96
2023-06-20T10:03:43.564Z,74.37
2023-06-20T10:04:43.434Z,74.46
2023-06-20T10:05:43.433Z,74.66
2023-06-20T10:06:43.431Z,74.23
2023-06-20T10:07:43.428Z,73.73
2023-06-20T10:08:43.400Z,74.03
2023-06-20T10:09:43.371Z,73.83
2023-06-20T10:10:43.380Z,74.03
2023-06-20T10:11:43.346Z,73.43
2023-06-20T10:12:43.357Z,73.00
2023-06-20T10:13:43.327Z,72.60
2023-06-20T10:14:43.297Z,72.11
2023-06-20T10:15:43.369Z,72.11
2023-06-20T10:16:43.268Z,73.30
2023-06-20T10:17:43.408Z,73.20
2023-06-20T10:18:43.334Z,73.16
2023-06-20T10:19:43.245Z,72.86
2023-06-20T10:20:43.241Z,72.27
2023-06-20T10:21:43.199Z,72.07
2023-06-20T10:22:43.219Z,71.88
2023-06-20T10:23:43.251Z,71.94
2023-06-20T10:24:43.270Z,72.04
2023-06-20T10:25:43.166Z,72.04
2023-06-20T10:26:43.145Z,71.84
2023-06-20T10:27:43.155Z,72.33
2023-06-20T10:28:43.112Z,72.14
2023-06-20T10:29:43.125Z,71.34
2023-06-20T10:30:43.096Z,70.15
2023-06-20T10:31:43.105Z,70.65
2023-06-20T10:32:43.124Z,71.44
2023-06-20T10:33:43.048Z,71.44
2023-06-20T10:34:43.039Z,71.04
2023-06-20T10:35:43.027Z,70.25
2023-06-20T10:36:43.030Z,70.35
2023-06-20T10:37:43.044Z,70.25
2023-06-20T10:38:45.435Z,70.85
2023-06-20T10:39:42.989Z,72.14
2023-06-20T10:40:42.966Z,71.34
2023-06-20T10:41:42.973Z,70.65
2023-06-20T10:42:42.963Z,69.62
2023-06-20T10:43:42.926Z,70.81
2023-06-20T10:44:42.900Z,70.02
2023-06-20T10:45:42.992Z,69.43
2023-06-20T10:46:42.988Z,68.43
2023-06-20T10:47:42.911Z,68.73
2023-06-20T10:48:42.857Z,69.43
2023-06-20T10:49:42.870Z,69.23
2023-06-20T10:50:42.871Z,70.72
2023-06-20T10:51:42.851Z,71.57
2023-06-20T10:52:42.804Z,70.58
2023-06-20T10:53:42.788Z,70.28
2023-06-20T10:54:42.772Z,69.49
2023-06-20T10:55:42.780Z,68.99
2023-06-20T10:56:42.747Z,68.70
2023-06-20T10:57:42.739Z,69.59
2023-06-20T10:58:42.721Z,70.05
2023-06-20T10:59:42.730Z,70.15
2023-06-20T11:00:42.716Z,70.05
2023-06-20T11:01:42.726Z,69.65
2023-06-20T11:02:42.792Z,68.37
2023-06-20T11:03:42.681Z,69.13
2023-06-20T11:04:42.670Z,70.21
2023-06-20T11:05:42.633Z,70.61
2023-06-20T11:06:42.624Z,69.72
2023-06-20T11:07:51.471Z,70.02
2023-06-20T11:08:43.629Z,69.59
2023-06-20T11:09:42.604Z,69.09
2023-06-20T11:10:42.579Z,68.80
2023-06-20T11:11:42.551Z,67.80
2023-06-20T11:12:44.492Z,67.21
2023-06-20T11:13:42.563Z,68.30
2023-06-20T11:14:42.546Z,68.70
2023-06-20T11:15:42.557Z,68.70
2023-06-20T11:16:42.508Z,68.40
2023-06-20T11:17:42.586Z,68.57
2023-06-20T11:18:42.559Z,67.87
2023-06-20T11:19:42.506Z,67.97
2023-06-20T11:20:42.440Z,67.58
2023-06-20T11:21:42.434Z,66.72
2023-06-20T11:22:42.428Z,67.91
2023-06-20T11:23:42.485Z,67.71
2023-06-20T11:24:42.446Z,68.13
2023-06-20T11:25:42.413Z,68.24
2023-06-20T11:26:42.362Z,68.13
2023-06-20T11:27:42.395Z,68.24
2023-06-20T11:28:42.352Z,67.64
2023-06-20T11:29:42.344Z,67.64
2023-06-20T11:30:42.336Z,67.74
2023-06-20T11:31:42.294Z,67.31
2023-06-20T11:32:42.372Z,67.31
2023-06-20T11:33:42.322Z,67.71
2023-06-20T11:34:42.249Z,68.99
2023-06-20T11:35:42.237Z,68.37
2023-06-20T11:36:42.228Z,67.38
2023-06-20T11:37:42.240Z,67.68
2023-06-20T11:38:42.222Z,64.81
2023-06-20T11:39:45.234Z,64.87
2023-06-20T11:40:43.196Z,64.38
2023-06-20T11:41:42.204Z,63.89
2023-06-20T11:42:42.171Z,63.98
2023-06-20T11:43:42.154Z,64.28
2023-06-20T11:44:42.187Z,65.37
2023-06-20T11:45:42.136Z,66.36
2023-06-20T11:46:42.174Z,66.85
2023-06-20T11:47:42.133Z,66.52
2023-06-20T11:48:42.090Z,66.42
2023-06-20T11:49:42.078Z,65.73
2023-06-20T11:50:44.149Z,66.13
2023-06-20T11:51:42.049Z,66.49
2023-06-20T11:52:42.016Z,67.77
2023-06-20T11:53:42.013Z,67.68
2023-06-20T11:54:42.016Z,66.99
2023-06-20T11:55:41.983Z,63.99
2023-06-20T11:56:41.990Z,64.09
2023-06-20T11:57:41.962Z,64.28
2023-06-20T11:58:41.948Z,64.18
2023-06-20T11:59:41.930Z,64.68
2023-06-20T12:00:41.940Z,65.17
2023-06-20T12:01:41.949Z,64.18
2023-06-20T12:02:41.898Z,63.40
2023-06-20T12:03:41.948Z,63.76
2023-06-20T12:04:41.867Z,63.00
2023-06-20T12:05:41.869Z,63.37
2023-06-20T12:06:41.837Z,63.76
2023-06-20T12:07:41.830Z,64.84
2023-06-20T12:08:41.807Z,63.86
2023-06-20T12:09:41.879Z,63.27
2023-06-20T12:10:41.810Z,62.84
2023-06-20T12:11:41.773Z,62.15
2023-06-20T12:12:41.764Z,62.45
2023-06-20T12:13:41.750Z,63.04
2023-06-20T12:14:41.738Z,62.15
2023-06-20T12:15:41.734Z,61.56
2023-06-20T12:16:41.708Z,61.66
2023-06-20T12:17:41.720Z,62.15
2023-06-20T12:18:41.686Z,60.47
2023-06-20T12:19:41.700Z,59.29
2023-06-20T12:20:50.942Z,59.81
2023-06-20T12:21:42.648Z,60.11
2023-06-20T12:22:43.674Z,60.33
2023-06-20T12:23:41.618Z,60.24
2023-06-20T12:24:41.764Z,60.53
2023-06-20T12:25:41.588Z,61.35
2023-06-20T12:26:41.579Z,61.45
2023-06-20T12:27:41.577Z,61.55
2023-06-20T12:28:41.560Z,62.31
2023-06-20T12:29:41.668Z,62.51
2023-06-20T12:30:41.526Z,62.71
2023-06-20T12:31:41.613Z,62.90
2023-06-20T12:32:41.551Z,61.19
2023-06-20T12:33:41.527Z,61.29
2023-06-20T12:34:41.685Z,61.19
2023-06-20T12:35:41.541Z,60.57
2023-06-20T12:36:41.444Z,60.47
2023-06-20T12:37:41.523Z,59.75
2023-06-20T12:38:41.461Z,59.66
2023-06-20T12:39:41.555Z,58.47
2023-06-20T12:40:41.443Z,58.18
2023-06-20T12:41:41.397Z,58.97
2023-06-20T12:42:41.504Z,58.45
2023-06-20T12:43:41.461Z,58.54
2023-06-20T12:44:41.475Z,59.16
2023-06-20T12:45:41.361Z,59.43
2023-06-20T12:46:41.338Z,57.26
2023-06-20T12:47:41.420Z,57.46
2023-06-20T12:48:41.325Z,57.95
2023-06-20T12:49:41.291Z,56.27
2023-06-20T12:50:41.395Z,56.96
2023-06-20T12:51:41.261Z,57.39
2023-06-20T12:52:45.543Z,56.30
2023-06-20T12:53:41.240Z,56.73